Airfield :
LOGIN :

Register | Disclaimer

   EN    FR    IT 

 










Legend :    VFR   Marginal VFR   IFR   Intensive IFR   Very Intensive IFR
Visi :
Ceiling :
>= 8 km
>= 3000ft
5 to 8 km
1000 to 3000 ft
1500m to 5 km
500 to 1000 ft
800 to 1500m
200 to 500 ft
< 800m
< 200 ft
Symbols :   Thunderstorms  Fog  Heavy snow  Heavy precipitations  Wind > 20 kt
SIGMETs :     Misc.  Thunderstorms  Icing  Turbulence  Mountain Waves  Volcanic Ashes






- Airport Elevation : 17 ft
- IATA code : GRQ


EHGG - Groningen Eelde

CURRENT METAR :
  • 181325Z AUTO 26009KT 230V300 9999 NSC 26/16 Q1020 NOSIG

EXPIRED METARs :
  • 181255Z AUTO 27008KT 210V310 9999 NSC 26/15 Q1020 NOSIG
  • 181225Z AUTO 26009KT 220V290 9999 NSC 26/15 Q1020 NOSIG
  • 181155Z AUTO 26007KT 220V300 9999 NSC 27/14 Q1020 NOSIG
  • 181125Z AUTO 25007KT 210V310 9999 NSC 26/14 Q1019 NOSIG
  • 181055Z AUTO 28009KT 230V320 9999 NSC 27/14 Q1020 NOSIG

TAF TAF EHGG
Valid from the 18 at 12:00 until the 19 at 18:00 UTC


181116Z 1812/1918 28008KT CAVOK
PROB30 1900/1905 6000
PROB40
TEMPO 1907/1911 25015G25KT 5000 SHRA SCT070CB
TEMPO 1913/1916 4000 SHRA SCT045CB
PROB30
TEMPO 1913/1916 25027G42KT 2000 TSRAGR SCT020 BKN035CB



MET'MAP, your aeronautical weather chart ! - Copyright ORBIFLY December 2007 - Disclaimer

ORBIFLY MET'MAP TEAM :

Programming & Development : Alexandra Zaïnal
Original concept : Baudouin d'Aumeries
Technical & hardware support : Manuel Goepfert
Assistance : Marc-Olivier Méhu

Contact : metmap@orbifly.com




SOURCES & CREDITS :

   NOAA